sensor_id;sensor_type;location;lat;lon;timestamp;P1;durP1;ratioP1;P2;durP2;ratioP2
75358;SDS011;64046;51.978;5.934;2022-11-20T00:01:51;14.50;;;8.00;;
75358;SDS011;64046;51.978;5.934;2022-11-20T00:04:20;15.65;;;8.32;;
75358;SDS011;64046;51.978;5.934;2022-11-20T00:06:49;14.85;;;7.30;;
75358;SDS011;64046;51.978;5.934;2022-11-20T00:09:21;14.57;;;8.00;;
75358;SDS011;64046;51.978;5.934;2022-11-20T00:11:50;15.50;;;8.32;;
75358;SDS011;64046;51.978;5.934;2022-11-20T00:14:19;23.55;;;10.20;;
75358;SDS011;64046;51.978;5.934;2022-11-20T00:16:48;17.27;;;9.25;;
75358;SDS011;64046;51.978;5.934;2022-11-20T00:19:18;17.15;;;9.32;;
75358;SDS011;64046;51.978;5.934;2022-11-20T00:21:47;13.63;;;8.18;;
75358;SDS011;64046;51.978;5.934;2022-11-20T00:24:17;14.30;;;7.88;;
75358;SDS011;64046;51.978;5.934;2022-11-20T00:26:48;15.43;;;9.30;;
75358;SDS011;64046;51.978;5.934;2022-11-20T00:29:18;14.07;;;9.07;;
75358;SDS011;64046;51.978;5.934;2022-11-20T00:31:47;15.63;;;9.93;;
75358;SDS011;64046;51.978;5.934;2022-11-20T00:34:16;15.60;;;8.43;;
75358;SDS011;64046;51.978;5.934;2022-11-20T00:36:45;17.00;;;9.13;;
75358;SDS011;64046;51.978;5.934;2022-11-20T00:39:14;16.85;;;9.43;;
75358;SDS011;64046;51.978;5.934;2022-11-20T00:41:43;14.00;;;8.60;;
75358;SDS011;64046;51.978;5.934;2022-11-20T00:44:15;13.82;;;8.13;;
75358;SDS011;64046;51.978;5.934;2022-11-20T00:46:44;16.10;;;8.55;;
75358;SDS011;64046;51.978;5.934;2022-11-20T00:49:13;13.00;;;6.72;;
75358;SDS011;64046;51.978;5.934;2022-11-20T00:51:49;19.13;;;9.82;;
75358;SDS011;64046;51.978;5.934;2022-11-20T00:54:18;25.92;;;12.55;;
75358;SDS011;64046;51.978;5.934;2022-11-20T00:56:47;19.15;;;9.38;;
75358;SDS011;64046;51.978;5.934;2022-11-20T00:59:19;18.48;;;10.50;;
75358;SDS011;64046;51.978;5.934;2022-11-20T01:01:48;32.35;;;14.95;;
75358;SDS011;64046;51.978;5.934;2022-11-20T01:04:17;19.65;;;9.65;;
75358;SDS011;64046;51.978;5.934;2022-11-20T01:06:47;21.02;;;11.05;;
75358;SDS011;64046;51.978;5.934;2022-11-20T01:09:16;23.60;;;12.10;;
75358;SDS011;64046;51.978;5.934;2022-11-20T01:11:45;29.08;;;11.32;;
75358;SDS011;64046;51.978;5.934;2022-11-20T01:14:15;19.92;;;10.98;;
75358;SDS011;64046;51.978;5.934;2022-11-20T01:16:49;22.10;;;10.88;;
75358;SDS011;64046;51.978;5.934;2022-11-20T01:19:20;17.08;;;9.10;;
75358;SDS011;64046;51.978;5.934;2022-11-20T01:21:51;17.58;;;9.55;;
75358;SDS011;64046;51.978;5.934;2022-11-20T01:24:22;18.85;;;9.52;;
75358;SDS011;64046;51.978;5.934;2022-11-20T01:26:51;17.58;;;8.73;;
75358;SDS011;64046;51.978;5.934;2022-11-20T01:29:21;15.93;;;8.85;;
75358;SDS011;64046;51.978;5.934;2022-11-20T01:31:54;12.55;;;6.88;;
75358;SDS011;64046;51.978;5.934;2022-11-20T01:34:23;15.75;;;8.80;;
75358;SDS011;64046;51.978;5.934;2022-11-20T01:36:52;13.40;;;8.38;;
75358;SDS011;64046;51.978;5.934;2022-11-20T01:39:23;13.75;;;8.18;;
75358;SDS011;64046;51.978;5.934;2022-11-20T01:41:54;11.25;;;6.22;;
75358;SDS011;64046;51.978;5.934;2022-11-20T01:44:42;15.70;;;8.65;;
75358;SDS011;64046;51.978;5.934;2022-11-20T01:47:20;18.92;;;9.65;;
75358;SDS011;64046;51.978;5.934;2022-11-20T01:49:54;14.43;;;8.38;;
75358;SDS011;64046;51.978;5.934;2022-11-20T01:52:28;11.80;;;6.93;;
75358;SDS011;64046;51.978;5.934;2022-11-20T01:55:04;17.00;;;8.63;;
75358;SDS011;64046;51.978;5.934;2022-11-20T01:57:35;11.52;;;6.95;;
75358;SDS011;64046;51.978;5.934;2022-11-20T02:00:07;12.50;;;6.82;;
75358;SDS011;64046;51.978;5.934;2022-11-20T02:02:42;12.65;;;7.50;;
75358;SDS011;64046;51.978;5.934;2022-11-20T02:05:18;13.27;;;7.38;;
75358;SDS011;64046;51.978;5.934;2022-11-20T02:07:51;11.38;;;7.00;;
75358;SDS011;64046;51.978;5.934;2022-11-20T02:10:22;12.85;;;6.82;;
75358;SDS011;64046;51.978;5.934;2022-11-20T02:12:52;11.88;;;7.03;;
75358;SDS011;64046;51.978;5.934;2022-11-20T02:15:34;11.73;;;6.50;;
75358;SDS011;64046;51.978;5.934;2022-11-20T02:18:06;13.52;;;7.10;;
75358;SDS011;64046;51.978;5.934;2022-11-20T02:20:36;16.02;;;7.82;;
75358;SDS011;64046;51.978;5.934;2022-11-20T02:23:07;15.10;;;8.75;;
75358;SDS011;64046;51.978;5.934;2022-11-20T02:25:43;15.88;;;8.27;;
75358;SDS011;64046;51.978;5.934;2022-11-20T02:28:16;11.90;;;7.45;;
75358;SDS011;64046;51.978;5.934;2022-11-20T02:30:46;12.48;;;7.50;;
75358;SDS011;64046;51.978;5.934;2022-11-20T02:33:15;13.40;;;8.50;;
75358;SDS011;64046;51.978;5.934;2022-11-20T02:35:44;11.40;;;7.40;;
75358;SDS011;64046;51.978;5.934;2022-11-20T02:38:14;11.85;;;7.75;;
75358;SDS011;64046;51.978;5.934;2022-11-20T02:40:46;13.05;;;7.78;;
75358;SDS011;64046;51.978;5.934;2022-11-20T02:43:15;11.73;;;7.82;;
75358;SDS011;64046;51.978;5.934;2022-11-20T02:45:44;14.48;;;7.80;;
75358;SDS011;64046;51.978;5.934;2022-11-20T02:48:14;14.13;;;8.02;;
75358;SDS011;64046;51.978;5.934;2022-11-20T02:50:43;12.98;;;7.47;;
75358;SDS011;64046;51.978;5.934;2022-11-20T02:53:12;11.23;;;7.75;;
75358;SDS011;64046;51.978;5.934;2022-11-20T02:55:41;11.90;;;6.60;;
75358;SDS011;64046;51.978;5.934;2022-11-20T02:58:12;12.32;;;7.03;;
75358;SDS011;64046;51.978;5.934;2022-11-20T03:00:42;13.20;;;7.85;;
75358;SDS011;64046;51.978;5.934;2022-11-20T03:03:11;12.13;;;6.72;;
75358;SDS011;64046;51.978;5.934;2022-11-20T03:05:40;13.65;;;7.80;;
75358;SDS011;64046;51.978;5.934;2022-11-20T03:08:09;13.23;;;7.93;;
75358;SDS011;64046;51.978;5.934;2022-11-20T03:10:38;14.82;;;8.25;;
75358;SDS011;64046;51.978;5.934;2022-11-20T03:13:07;13.43;;;7.57;;
75358;SDS011;64046;51.978;5.934;2022-11-20T03:15:39;11.13;;;7.07;;
75358;SDS011;64046;51.978;5.934;2022-11-20T03:18:08;15.80;;;7.70;;
75358;SDS011;64046;51.978;5.934;2022-11-20T03:20:39;14.20;;;7.75;;
75358;SDS011;64046;51.978;5.934;2022-11-20T03:23:08;12.38;;;7.60;;
75358;SDS011;64046;51.978;5.934;2022-11-20T03:25:37;13.40;;;7.95;;
75358;SDS011;64046;51.978;5.934;2022-11-20T03:28:06;17.85;;;8.38;;
75358;SDS011;64046;51.978;5.934;2022-11-20T03:30:35;11.07;;;7.10;;
75358;SDS011;64046;51.978;5.934;2022-11-20T03:33:07;14.98;;;7.97;;
75358;SDS011;64046;51.978;5.934;2022-11-20T03:35:36;12.38;;;7.40;;
75358;SDS011;64046;51.978;5.934;2022-11-20T03:38:05;14.45;;;8.90;;
75358;SDS011;64046;51.978;5.934;2022-11-20T03:40:34;12.85;;;7.95;;
75358;SDS011;64046;51.978;5.934;2022-11-20T03:43:04;13.50;;;8.13;;
75358;SDS011;64046;51.978;5.934;2022-11-20T03:45:33;12.00;;;7.25;;
75358;SDS011;64046;51.978;5.934;2022-11-20T03:48:02;12.43;;;7.50;;
75358;SDS011;64046;51.978;5.934;2022-11-20T03:50:34;14.55;;;8.35;;
75358;SDS011;64046;51.978;5.934;2022-11-20T03:53:03;15.90;;;9.45;;
75358;SDS011;64046;51.978;5.934;2022-11-20T03:55:32;16.27;;;8.73;;
75358;SDS011;64046;51.978;5.934;2022-11-20T03:58:01;13.23;;;7.85;;
75358;SDS011;64046;51.978;5.934;2022-11-20T04:00:30;12.98;;;7.95;;
75358;SDS011;64046;51.978;5.934;2022-11-20T04:02:59;11.95;;;7.43;;
75358;SDS011;64046;51.978;5.934;2022-11-20T04:05:32;15.65;;;8.55;;
75358;SDS011;64046;51.978;5.934;2022-11-20T04:08:04;13.02;;;7.35;;
75358;SDS011;64046;51.978;5.934;2022-11-20T04:10:34;12.10;;;7.32;;
75358;SDS011;64046;51.978;5.934;2022-11-20T04:13:03;18.83;;;8.98;;
75358;SDS011;64046;51.978;5.934;2022-11-20T04:15:32;12.98;;;7.35;;
75358;SDS011;64046;51.978;5.934;2022-11-20T04:18:01;16.23;;;8.88;;
75358;SDS011;64046;51.978;5.934;2022-11-20T04:20:30;11.90;;;7.28;;
75358;SDS011;64046;51.978;5.934;2022-11-20T04:23:02;15.43;;;8.93;;
75358;SDS011;64046;51.978;5.934;2022-11-20T04:25:31;13.73;;;7.55;;
75358;SDS011;64046;51.978;5.934;2022-11-20T04:28:00;14.35;;;8.43;;
75358;SDS011;64046;51.978;5.934;2022-11-20T04:30:30;12.45;;;7.15;;
75358;SDS011;64046;51.978;5.934;2022-11-20T04:32:59;12.43;;;7.47;;
75358;SDS011;64046;51.978;5.934;2022-11-20T04:35:28;13.07;;;7.85;;
75358;SDS011;64046;51.978;5.934;2022-11-20T04:37:57;12.57;;;7.82;;
75358;SDS011;64046;51.978;5.934;2022-11-20T04:40:29;11.95;;;7.30;;
75358;SDS011;64046;51.978;5.934;2022-11-20T04:43:06;12.07;;;7.50;;
75358;SDS011;64046;51.978;5.934;2022-11-20T04:45:35;13.30;;;8.60;;
75358;SDS011;64046;51.978;5.934;2022-11-20T04:48:04;12.43;;;6.38;;
75358;SDS011;64046;51.978;5.934;2022-11-20T04:50:34;15.60;;;8.98;;
75358;SDS011;64046;51.978;5.934;2022-11-20T04:53:03;13.32;;;8.05;;
75358;SDS011;64046;51.978;5.934;2022-11-20T04:55:34;13.75;;;8.50;;
75358;SDS011;64046;51.978;5.934;2022-11-20T04:58:04;14.18;;;8.02;;
75358;SDS011;64046;51.978;5.934;2022-11-20T05:00:33;13.00;;;8.02;;
75358;SDS011;64046;51.978;5.934;2022-11-20T05:03:02;12.35;;;7.35;;
75358;SDS011;64046;51.978;5.934;2022-11-20T05:05:31;11.60;;;7.35;;
75358;SDS011;64046;51.978;5.934;2022-11-20T05:08:02;13.27;;;7.50;;
75358;SDS011;64046;51.978;5.934;2022-11-20T05:10:31;12.15;;;7.88;;
75358;SDS011;64046;51.978;5.934;2022-11-20T05:13:03;14.70;;;7.97;;
75358;SDS011;64046;51.978;5.934;2022-11-20T05:15:32;14.70;;;8.52;;
75358;SDS011;64046;51.978;5.934;2022-11-20T05:18:01;11.52;;;7.60;;
75358;SDS011;64046;51.978;5.934;2022-11-20T05:20:30;16.67;;;8.60;;
75358;SDS011;64046;51.978;5.934;2022-11-20T05:22:59;12.95;;;7.63;;
75358;SDS011;64046;51.978;5.934;2022-11-20T05:25:28;14.52;;;7.63;;
75358;SDS011;64046;51.978;5.934;2022-11-20T05:27:57;13.27;;;8.00;;
75358;SDS011;64046;51.978;5.934;2022-11-20T05:30:29;12.43;;;7.10;;
75358;SDS011;64046;51.978;5.934;2022-11-20T05:32:58;11.43;;;7.38;;
75358;SDS011;64046;51.978;5.934;2022-11-20T05:35:27;12.65;;;7.78;;
75358;SDS011;64046;51.978;5.934;2022-11-20T05:37:56;17.40;;;9.18;;
75358;SDS011;64046;51.978;5.934;2022-11-20T05:40:25;14.60;;;8.52;;
75358;SDS011;64046;51.978;5.934;2022-11-20T05:42:54;8.68;;;5.70;;
75358;SDS011;64046;51.978;5.934;2022-11-20T05:45:23;12.13;;;7.38;;
75358;SDS011;64046;51.978;5.934;2022-11-20T05:47:57;12.90;;;7.75;;
75358;SDS011;64046;51.978;5.934;2022-11-20T05:50:26;15.93;;;8.35;;
75358;SDS011;64046;51.978;5.934;2022-11-20T05:52:57;14.93;;;7.60;;
75358;SDS011;64046;51.978;5.934;2022-11-20T05:55:26;16.05;;;8.15;;
75358;SDS011;64046;51.978;5.934;2022-11-20T05:57:55;12.75;;;7.70;;
75358;SDS011;64046;51.978;5.934;2022-11-20T06:00:25;13.68;;;8.45;;
75358;SDS011;64046;51.978;5.934;2022-11-20T06:02:56;14.23;;;8.32;;
75358;SDS011;64046;51.978;5.934;2022-11-20T06:05:25;14.15;;;7.75;;
75358;SDS011;64046;51.978;5.934;2022-11-20T06:07:54;15.07;;;7.55;;
75358;SDS011;64046;51.978;5.934;2022-11-20T06:10:24;15.43;;;8.38;;
75358;SDS011;64046;51.978;5.934;2022-11-20T06:12:53;17.48;;;9.95;;
75358;SDS011;64046;51.978;5.934;2022-11-20T06:15:22;15.32;;;8.18;;
75358;SDS011;64046;51.978;5.934;2022-11-20T06:17:51;15.65;;;9.00;;
75358;SDS011;64046;51.978;5.934;2022-11-20T06:20:24;13.57;;;8.00;;
75358;SDS011;64046;51.978;5.934;2022-11-20T06:22:53;13.13;;;7.28;;
75358;SDS011;64046;51.978;5.934;2022-11-20T06:25:22;12.25;;;7.72;;
75358;SDS011;64046;51.978;5.934;2022-11-20T06:27:51;12.98;;;6.80;;
75358;SDS011;64046;51.978;5.934;2022-11-20T06:30:20;13.60;;;7.97;;
75358;SDS011;64046;51.978;5.934;2022-11-20T06:32:49;15.25;;;8.95;;
75358;SDS011;64046;51.978;5.934;2022-11-20T06:35:18;15.48;;;8.65;;
75358;SDS011;64046;51.978;5.934;2022-11-20T06:37:50;16.88;;;9.02;;
75358;SDS011;64046;51.978;5.934;2022-11-20T06:40:19;13.90;;;8.52;;
75358;SDS011;64046;51.978;5.934;2022-11-20T06:42:48;10.80;;;6.93;;
75358;SDS011;64046;51.978;5.934;2022-11-20T06:45:18;14.43;;;8.30;;
75358;SDS011;64046;51.978;5.934;2022-11-20T06:47:47;16.45;;;9.40;;
75358;SDS011;64046;51.978;5.934;2022-11-20T06:50:16;17.27;;;8.50;;
75358;SDS011;64046;51.978;5.934;2022-11-20T06:52:45;13.25;;;7.03;;
75358;SDS011;64046;51.978;5.934;2022-11-20T06:55:17;14.50;;;8.82;;
75358;SDS011;64046;51.978;5.934;2022-11-20T06:57:46;15.63;;;8.80;;
75358;SDS011;64046;51.978;5.934;2022-11-20T07:00:15;17.02;;;10.18;;
75358;SDS011;64046;51.978;5.934;2022-11-20T07:02:44;14.90;;;9.00;;
75358;SDS011;64046;51.978;5.934;2022-11-20T07:05:14;16.92;;;7.70;;
75358;SDS011;64046;51.978;5.934;2022-11-20T07:07:43;15.35;;;8.18;;
75358;SDS011;64046;51.978;5.934;2022-11-20T07:10:12;12.43;;;6.85;;
75358;SDS011;64046;51.978;5.934;2022-11-20T07:12:48;16.67;;;9.77;;
75358;SDS011;64046;51.978;5.934;2022-11-20T07:15:17;13.00;;;7.32;;
75358;SDS011;64046;51.978;5.934;2022-11-20T07:17:47;13.32;;;7.53;;
75358;SDS011;64046;51.978;5.934;2022-11-20T07:20:17;12.27;;;7.18;;
75358;SDS011;64046;51.978;5.934;2022-11-20T07:22:46;16.80;;;8.80;;
75358;SDS011;64046;51.978;5.934;2022-11-20T07:25:15;15.30;;;9.20;;
75358;SDS011;64046;51.978;5.934;2022-11-20T07:27:47;15.02;;;9.50;;
75358;SDS011;64046;51.978;5.934;2022-11-20T07:30:16;16.23;;;10.15;;
75358;SDS011;64046;51.978;5.934;2022-11-20T07:32:46;18.80;;;10.38;;
75358;SDS011;64046;51.978;5.934;2022-11-20T07:35:15;14.02;;;8.50;;
75358;SDS011;64046;51.978;5.934;2022-11-20T07:37:44;17.20;;;9.50;;
75358;SDS011;64046;51.978;5.934;2022-11-20T07:40:14;14.27;;;8.73;;
75358;SDS011;64046;51.978;5.934;2022-11-20T07:42:49;12.77;;;7.57;;
75358;SDS011;64046;51.978;5.934;2022-11-20T07:45:19;19.38;;;10.85;;
75358;SDS011;64046;51.978;5.934;2022-11-20T07:47:50;17.77;;;10.88;;
75358;SDS011;64046;51.978;5.934;2022-11-20T07:50:19;16.42;;;9.50;;
75358;SDS011;64046;51.978;5.934;2022-11-20T07:52:49;16.77;;;10.32;;
75358;SDS011;64046;51.978;5.934;2022-11-20T07:55:18;15.90;;;8.75;;
75358;SDS011;64046;51.978;5.934;2022-11-20T07:57:56;14.73;;;8.15;;
75358;SDS011;64046;51.978;5.934;2022-11-20T08:00:26;20.55;;;11.30;;
75358;SDS011;64046;51.978;5.934;2022-11-20T08:02:55;21.65;;;11.63;;
75358;SDS011;64046;51.978;5.934;2022-11-20T08:05:24;20.02;;;8.60;;
75358;SDS011;64046;51.978;5.934;2022-11-20T08:07:53;20.20;;;11.43;;
75358;SDS011;64046;51.978;5.934;2022-11-20T08:10:22;17.92;;;10.50;;
75358;SDS011;64046;51.978;5.934;2022-11-20T08:12:52;22.02;;;12.02;;
75358;SDS011;64046;51.978;5.934;2022-11-20T08:15:37;20.83;;;11.10;;
75358;SDS011;64046;51.978;5.934;2022-11-20T08:18:07;16.65;;;9.18;;
75358;SDS011;64046;51.978;5.934;2022-11-20T08:20:38;25.13;;;12.95;;
75358;SDS011;64046;51.978;5.934;2022-11-20T08:23:07;15.63;;;9.20;;
75358;SDS011;64046;51.978;5.934;2022-11-20T08:25:37;17.08;;;10.35;;
75358;SDS011;64046;51.978;5.934;2022-11-20T08:28:07;20.23;;;12.52;;
75358;SDS011;64046;51.978;5.934;2022-11-20T08:30:40;19.27;;;10.82;;
75358;SDS011;64046;51.978;5.934;2022-11-20T08:33:10;25.45;;;12.73;;
75358;SDS011;64046;51.978;5.934;2022-11-20T08:35:39;25.23;;;13.27;;
75358;SDS011;64046;51.978;5.934;2022-11-20T08:38:08;24.48;;;12.43;;
75358;SDS011;64046;51.978;5.934;2022-11-20T08:40:38;19.70;;;11.43;;
75358;SDS011;64046;51.978;5.934;2022-11-20T08:43:27;23.55;;;12.93;;
75358;SDS011;64046;51.978;5.934;2022-11-20T08:46:00;20.38;;;11.25;;
75358;SDS011;64046;51.978;5.934;2022-11-20T08:48:30;22.98;;;13.50;;
75358;SDS011;64046;51.978;5.934;2022-11-20T08:50:59;21.88;;;11.57;;
75358;SDS011;64046;51.978;5.934;2022-11-20T08:53:28;21.05;;;11.85;;
75358;SDS011;64046;51.978;5.934;2022-11-20T08:55:57;20.05;;;11.75;;
75358;SDS011;64046;51.978;5.934;2022-11-20T08:58:26;18.25;;;10.98;;
75358;SDS011;64046;51.978;5.934;2022-11-20T09:00:56;20.30;;;11.73;;
75358;SDS011;64046;51.978;5.934;2022-11-20T09:03:27;22.10;;;11.45;;
75358;SDS011;64046;51.978;5.934;2022-11-20T09:05:57;17.83;;;9.75;;
75358;SDS011;64046;51.978;5.934;2022-11-20T09:08:27;21.25;;;10.88;;
75358;SDS011;64046;51.978;5.934;2022-11-20T09:10:57;18.50;;;9.85;;
75358;SDS011;64046;51.978;5.934;2022-11-20T09:13:27;19.38;;;11.55;;
75358;SDS011;64046;51.978;5.934;2022-11-20T09:15:57;20.23;;;10.77;;
75358;SDS011;64046;51.978;5.934;2022-11-20T09:18:30;19.63;;;11.40;;
75358;SDS011;64046;51.978;5.934;2022-11-20T09:21:02;17.85;;;10.60;;
75358;SDS011;64046;51.978;5.934;2022-11-20T09:23:33;20.40;;;10.50;;
75358;SDS011;64046;51.978;5.934;2022-11-20T09:26:04;24.85;;;11.50;;
75358;SDS011;64046;51.978;5.934;2022-11-20T09:28:33;22.83;;;12.55;;
75358;SDS011;64046;51.978;5.934;2022-11-20T09:31:04;17.92;;;10.10;;
75358;SDS011;64046;51.978;5.934;2022-11-20T09:33:37;17.90;;;10.30;;
75358;SDS011;64046;51.978;5.934;2022-11-20T09:36:06;21.95;;;11.00;;
75358;SDS011;64046;51.978;5.934;2022-11-20T09:38:36;22.25;;;12.23;;
75358;SDS011;64046;51.978;5.934;2022-11-20T09:41:06;18.02;;;10.43;;
75358;SDS011;64046;51.978;5.934;2022-11-20T09:43:48;22.58;;;12.95;;
75358;SDS011;64046;51.978;5.934;2022-11-20T09:46:28;22.02;;;12.55;;
75358;SDS011;64046;51.978;5.934;2022-11-20T09:49:12;24.58;;;11.88;;
75358;SDS011;64046;51.978;5.934;2022-11-20T09:51:54;17.88;;;11.43;;
75358;SDS011;64046;51.978;5.934;2022-11-20T09:54:27;17.83;;;10.32;;
75358;SDS011;64046;51.978;5.934;2022-11-20T09:57:00;21.70;;;11.27;;
75358;SDS011;64046;51.978;5.934;2022-11-20T09:59:33;21.98;;;12.02;;
75358;SDS011;64046;51.978;5.934;2022-11-20T10:02:12;26.02;;;14.23;;
75358;SDS011;64046;51.978;5.934;2022-11-20T10:04:49;22.17;;;10.60;;
75358;SDS011;64046;51.978;5.934;2022-11-20T10:07:22;27.05;;;13.20;;
75358;SDS011;64046;51.978;5.934;2022-11-20T10:09:58;21.80;;;11.48;;
75358;SDS011;64046;51.978;5.934;2022-11-20T10:12:31;23.23;;;12.77;;
75358;SDS011;64046;51.978;5.934;2022-11-20T10:15:23;22.63;;;12.13;;
75358;SDS011;64046;51.978;5.934;2022-11-20T10:18:06;27.02;;;12.95;;
75358;SDS011;64046;51.978;5.934;2022-11-20T10:20:49;27.27;;;14.77;;
75358;SDS011;64046;51.978;5.934;2022-11-20T10:26:22;21.98;;;11.48;;
75358;SDS011;64046;51.978;5.934;2022-11-20T10:29:02;22.83;;;11.98;;
75358;SDS011;64046;51.978;5.934;2022-11-20T10:31:38;22.30;;;13.07;;
75358;SDS011;64046;51.978;5.934;2022-11-20T10:34:13;22.92;;;12.98;;
75358;SDS011;64046;51.978;5.934;2022-11-20T10:36:52;25.52;;;13.32;;
75358;SDS011;64046;51.978;5.934;2022-11-20T10:39:26;22.25;;;12.77;;
75358;SDS011;64046;51.978;5.934;2022-11-20T10:42:01;25.27;;;13.23;;
75358;SDS011;64046;51.978;5.934;2022-11-20T10:44:31;25.48;;;13.98;;
75358;SDS011;64046;51.978;5.934;2022-11-20T10:47:15;23.17;;;12.48;;
75358;SDS011;64046;51.978;5.934;2022-11-20T10:49:47;25.67;;;13.40;;
75358;SDS011;64046;51.978;5.934;2022-11-20T10:52:24;26.30;;;13.38;;
75358;SDS011;64046;51.978;5.934;2022-11-20T10:55:06;21.58;;;10.70;;
75358;SDS011;64046;51.978;5.934;2022-11-20T10:57:47;24.83;;;14.52;;
75358;SDS011;64046;51.978;5.934;2022-11-20T11:00:21;23.73;;;12.57;;
75358;SDS011;64046;51.978;5.934;2022-11-20T11:02:51;29.48;;;14.32;;
75358;SDS011;64046;51.978;5.934;2022-11-20T11:05:27;25.25;;;13.55;;
75358;SDS011;64046;51.978;5.934;2022-11-20T11:08:03;27.52;;;14.43;;
75358;SDS011;64046;51.978;5.934;2022-11-20T11:10:42;29.40;;;13.95;;
75358;SDS011;64046;51.978;5.934;2022-11-20T11:13:19;24.80;;;14.00;;
75358;SDS011;64046;51.978;5.934;2022-11-20T11:15:50;27.23;;;13.35;;
75358;SDS011;64046;51.978;5.934;2022-11-20T11:18:23;24.20;;;13.27;;
75358;SDS011;64046;51.978;5.934;2022-11-20T11:20:54;24.52;;;13.25;;
75358;SDS011;64046;51.978;5.934;2022-11-20T11:23:29;23.75;;;13.20;;
75358;SDS011;64046;51.978;5.934;2022-11-20T11:26:01;25.23;;;12.88;;
75358;SDS011;64046;51.978;5.934;2022-11-20T11:28:33;22.40;;;13.27;;
75358;SDS011;64046;51.978;5.934;2022-11-20T11:31:03;20.63;;;12.88;;
75358;SDS011;64046;51.978;5.934;2022-11-20T11:33:32;22.50;;;13.88;;
75358;SDS011;64046;51.978;5.934;2022-11-20T11:36:02;20.48;;;12.52;;
75358;SDS011;64046;51.978;5.934;2022-11-20T11:38:36;17.90;;;11.25;;
75358;SDS011;64046;51.978;5.934;2022-11-20T11:41:09;23.48;;;14.40;;
75358;SDS011;64046;51.978;5.934;2022-11-20T11:43:49;19.02;;;12.50;;
75358;SDS011;64046;51.978;5.934;2022-11-20T11:46:34;21.38;;;11.35;;
75358;SDS011;64046;51.978;5.934;2022-11-20T11:49:14;19.50;;;11.40;;
75358;SDS011;64046;51.978;5.934;2022-11-20T11:51:47;24.38;;;14.15;;
75358;SDS011;64046;51.978;5.934;2022-11-20T11:54:32;20.63;;;13.05;;
75358;SDS011;64046;51.978;5.934;2022-11-20T11:57:08;21.77;;;12.95;;
75358;SDS011;64046;51.978;5.934;2022-11-20T11:59:46;23.75;;;13.38;;
75358;SDS011;64046;51.978;5.934;2022-11-20T12:02:29;21.00;;;13.20;;
75358;SDS011;64046;51.978;5.934;2022-11-20T12:05:08;20.77;;;12.75;;
75358;SDS011;64046;51.978;5.934;2022-11-20T12:07:46;26.90;;;16.60;;
75358;SDS011;64046;51.978;5.934;2022-11-20T12:10:22;19.38;;;12.02;;
75358;SDS011;64046;51.978;5.934;2022-11-20T12:13:04;19.15;;;12.35;;
75358;SDS011;64046;51.978;5.934;2022-11-20T12:15:44;22.75;;;13.73;;
75358;SDS011;64046;51.978;5.934;2022-11-20T12:18:15;22.25;;;13.82;;
75358;SDS011;64046;51.978;5.934;2022-11-20T12:20:49;22.70;;;13.23;;
75358;SDS011;64046;51.978;5.934;2022-11-20T12:23:31;18.10;;;11.48;;
75358;SDS011;64046;51.978;5.934;2022-11-20T12:26:14;22.40;;;13.57;;
75358;SDS011;64046;51.978;5.934;2022-11-20T12:28:56;18.77;;;11.68;;
75358;SDS011;64046;51.978;5.934;2022-11-20T12:31:42;17.65;;;10.45;;
75358;SDS011;64046;51.978;5.934;2022-11-20T12:34:29;21.08;;;12.75;;
75358;SDS011;64046;51.978;5.934;2022-11-20T12:37:14;20.70;;;13.35;;
75358;SDS011;64046;51.978;5.934;2022-11-20T12:39:54;19.25;;;11.20;;
75358;SDS011;64046;51.978;5.934;2022-11-20T12:42:35;21.00;;;12.75;;
75358;SDS011;64046;51.978;5.934;2022-11-20T12:45:43;20.33;;;13.10;;
75358;SDS011;64046;51.978;5.934;2022-11-20T12:48:32;21.42;;;11.30;;
75358;SDS011;64046;51.978;5.934;2022-11-20T12:51:17;17.23;;;11.25;;
75358;SDS011;64046;51.978;5.934;2022-11-20T12:53:58;18.90;;;12.60;;
75358;SDS011;64046;51.978;5.934;2022-11-20T12:56:38;18.55;;;11.25;;
75358;SDS011;64046;51.978;5.934;2022-11-20T12:59:21;22.83;;;12.73;;
75358;SDS011;64046;51.978;5.934;2022-11-20T13:02:03;20.00;;;10.85;;
75358;SDS011;64046;51.978;5.934;2022-11-20T13:04:57;20.30;;;11.93;;
75358;SDS011;64046;51.978;5.934;2022-11-20T13:07:34;19.20;;;13.27;;
75358;SDS011;64046;51.978;5.934;2022-11-20T13:10:04;24.13;;;14.00;;
75358;SDS011;64046;51.978;5.934;2022-11-20T13:12:43;24.63;;;14.70;;
75358;SDS011;64046;51.978;5.934;2022-11-20T13:15:23;25.10;;;13.90;;
75358;SDS011;64046;51.978;5.934;2022-11-20T13:18:03;20.40;;;12.40;;
75358;SDS011;64046;51.978;5.934;2022-11-20T13:20:36;20.35;;;11.95;;
75358;SDS011;64046;51.978;5.934;2022-11-20T13:23:11;20.58;;;12.88;;
75358;SDS011;64046;51.978;5.934;2022-11-20T13:25:51;20.23;;;12.15;;
75358;SDS011;64046;51.978;5.934;2022-11-20T13:28:31;22.48;;;12.40;;
75358;SDS011;64046;51.978;5.934;2022-11-20T13:31:03;25.58;;;14.10;;
75358;SDS011;64046;51.978;5.934;2022-11-20T13:33:33;26.35;;;14.05;;
75358;SDS011;64046;51.978;5.934;2022-11-20T13:36:05;25.50;;;13.95;;
75358;SDS011;64046;51.978;5.934;2022-11-20T13:38:43;29.15;;;16.05;;
75358;SDS011;64046;51.978;5.934;2022-11-20T13:41:22;20.98;;;12.57;;
75358;SDS011;64046;51.978;5.934;2022-11-20T13:44:10;28.63;;;15.10;;
75358;SDS011;64046;51.978;5.934;2022-11-20T13:46:46;30.83;;;16.83;;
75358;SDS011;64046;51.978;5.934;2022-11-20T13:49:17;24.13;;;15.23;;
75358;SDS011;64046;51.978;5.934;2022-11-20T13:51:51;26.85;;;14.93;;
75358;SDS011;64046;51.978;5.934;2022-11-20T13:54:44;25.50;;;14.85;;
75358;SDS011;64046;51.978;5.934;2022-11-20T13:57:39;23.83;;;14.55;;
75358;SDS011;64046;51.978;5.934;2022-11-20T14:00:23;23.30;;;13.57;;
75358;SDS011;64046;51.978;5.934;2022-11-20T14:03:02;25.13;;;15.25;;
75358;SDS011;64046;51.978;5.934;2022-11-20T14:05:40;25.05;;;13.63;;
75358;SDS011;64046;51.978;5.934;2022-11-20T14:08:27;23.08;;;14.40;;
75358;SDS011;64046;51.978;5.934;2022-11-20T14:11:12;24.02;;;14.55;;
75358;SDS011;64046;51.978;5.934;2022-11-20T14:13:54;22.23;;;13.20;;
75358;SDS011;64046;51.978;5.934;2022-11-20T14:16:25;28.10;;;16.33;;
75358;SDS011;64046;51.978;5.934;2022-11-20T14:19:16;28.77;;;15.55;;
75358;SDS011;64046;51.978;5.934;2022-11-20T14:22:09;21.20;;;13.43;;
75358;SDS011;64046;51.978;5.934;2022-11-20T14:24:46;27.77;;;15.43;;
75358;SDS011;64046;51.978;5.934;2022-11-20T14:27:16;32.25;;;17.95;;
75358;SDS011;64046;51.978;5.934;2022-11-20T14:29:47;26.70;;;15.40;;
75358;SDS011;64046;51.978;5.934;2022-11-20T14:32:18;26.95;;;17.08;;
75358;SDS011;64046;51.978;5.934;2022-11-20T14:34:52;33.60;;;17.92;;
75358;SDS011;64046;51.978;5.934;2022-11-20T14:37:23;33.60;;;19.25;;
75358;SDS011;64046;51.978;5.934;2022-11-20T14:39:54;28.05;;;15.20;;
75358;SDS011;64046;51.978;5.934;2022-11-20T14:42:26;30.90;;;16.58;;
75358;SDS011;64046;51.978;5.934;2022-11-20T14:44:57;26.83;;;15.75;;
75358;SDS011;64046;51.978;5.934;2022-11-20T14:47:29;26.45;;;13.38;;
75358;SDS011;64046;51.978;5.934;2022-11-20T14:50:02;22.70;;;13.50;;
75358;SDS011;64046;51.978;5.934;2022-11-20T14:52:31;34.67;;;17.95;;
75358;SDS011;64046;51.978;5.934;2022-11-20T14:55:01;32.60;;;20.25;;
75358;SDS011;64046;51.978;5.934;2022-11-20T14:57:34;31.10;;;17.27;;
75358;SDS011;64046;51.978;5.934;2022-11-20T15:00:06;28.48;;;15.68;;
75358;SDS011;64046;51.978;5.934;2022-11-20T15:02:47;31.35;;;17.10;;
75358;SDS011;64046;51.978;5.934;2022-11-20T15:05:20;25.60;;;14.98;;